createdAt,value
2022-12-27T00:01:26.938Z,0.00
2022-12-27T00:03:55.797Z,0.00
2022-12-27T00:06:25.562Z,0.00
2022-12-27T00:08:54.191Z,0.03
2022-12-27T00:11:24.926Z,0.00
2022-12-27T00:13:53.544Z,0.00
2022-12-27T00:16:23.180Z,0.00
2022-12-27T00:18:52.439Z,0.00
2022-12-27T00:21:22.230Z,0.00
2022-12-27T00:23:54.562Z,0.00
2022-12-27T00:26:26.102Z,0.00
2022-12-27T00:28:54.724Z,0.00
2022-12-27T00:31:24.087Z,0.00
2022-12-27T00:33:53.331Z,0.00
2022-12-27T00:36:22.941Z,0.00
2022-12-27T00:38:51.382Z,0.00
2022-12-27T00:41:21.064Z,0.00
2022-12-27T00:43:50.913Z,0.00
2022-12-27T00:46:19.529Z,0.00
2022-12-27T00:48:48.007Z,0.03
2022-12-27T00:51:17.470Z,0.03
2022-12-27T00:53:46.835Z,0.00
2022-12-27T00:56:17.026Z,0.00
2022-12-27T00:58:45.571Z,0.00
2022-12-27T01:01:17.119Z,0.00
2022-12-27T01:03:45.787Z,0.00
2022-12-27T01:06:15.391Z,0.00
2022-12-27T01:08:44.490Z,0.00
2022-12-27T01:11:13.691Z,0.00
2022-12-27T01:13:42.294Z,0.07
2022-12-27T01:16:12.154Z,0.00
2022-12-27T01:18:41.865Z,0.10
2022-12-27T01:21:11.357Z,0.00
2022-12-27T01:23:39.968Z,0.00
2022-12-27T01:26:09.384Z,0.00
2022-12-27T01:28:37.957Z,0.03
2022-12-27T01:31:07.124Z,0.00
2022-12-27T01:33:35.483Z,0.00
2022-12-27T01:36:12.744Z,0.00
2022-12-27T01:38:42.738Z,0.10
2022-12-27T01:41:32.275Z,0.00
2022-12-27T01:44:00.692Z,0.00
2022-12-27T01:46:29.713Z,0.00
2022-12-27T01:48:58.331Z,0.07
2022-12-27T01:51:28.184Z,0.00
2022-12-27T01:53:56.775Z,0.10
2022-12-27T01:56:27.533Z,0.10
2022-12-27T01:58:58.388Z,0.10
2022-12-27T02:01:29.048Z,0.10
2022-12-27T02:03:59.555Z,0.00
2022-12-27T02:06:29.657Z,0.00
2022-12-27T02:09:00.155Z,0.10
2022-12-27T02:11:43.923Z,0.00
2022-12-27T02:14:13.607Z,0.00
2022-12-27T02:16:42.255Z,0.00
2022-12-27T02:19:26.462Z,0.00
2022-12-27T02:22:12.335Z,0.00
2022-12-27T02:24:55.641Z,0.10
2022-12-27T02:27:34.015Z,0.10
2022-12-27T02:30:04.266Z,0.10
2022-12-27T02:32:35.628Z,0.10
2022-12-27T02:35:09.035Z,0.10
2022-12-27T02:37:40.753Z,0.00
2022-12-27T02:40:27.798Z,0.10
2022-12-27T02:43:14.359Z,0.10
2022-12-27T02:46:05.656Z,0.00
2022-12-27T02:48:52.428Z,0.10
2022-12-27T02:51:45.005Z,0.00
2022-12-27T02:54:21.155Z,0.00
2022-12-27T02:57:08.461Z,0.17
2022-12-27T03:00:07.856Z,0.10
2022-12-27T03:03:04.429Z,0.10
2022-12-27T03:05:40.373Z,0.10
2022-12-27T03:08:13.086Z,0.07
2022-12-27T03:11:05.271Z,0.10
2022-12-27T03:13:53.760Z,0.10
2022-12-27T03:16:25.036Z,0.00
2022-12-27T03:19:00.937Z,0.00
2022-12-27T03:21:49.477Z,0.83
2022-12-27T03:24:36.867Z,0.10
2022-12-27T03:27:07.811Z,0.10
2022-12-27T03:29:54.201Z,0.10
2022-12-27T03:32:41.869Z,0.10
2022-12-27T03:35:14.427Z,0.30
2022-12-27T03:38:02.681Z,0.10
2022-12-27T03:41:06.959Z,0.07
2022-12-27T03:43:35.459Z,0.03
2022-12-27T03:46:26.579Z,0.10
2022-12-27T03:49:01.473Z,0.10
2022-12-27T03:51:34.432Z,0.10
2022-12-27T03:54:07.558Z,0.00
2022-12-27T03:56:35.840Z,0.10
2022-12-27T03:59:04.590Z,0.00
2022-12-27T04:01:32.985Z,0.10
2022-12-27T04:04:01.416Z,0.10
2022-12-27T04:06:31.100Z,0.10
2022-12-27T04:09:17.350Z,0.10
2022-12-27T04:12:03.526Z,0.00
2022-12-27T04:14:49.602Z,0.10
2022-12-27T04:17:35.943Z,0.60
2022-12-27T04:20:22.372Z,0.10
2022-12-27T04:23:09.881Z,0.00
2022-12-27T04:25:55.889Z,0.10
2022-12-27T04:28:43.100Z,0.10
2022-12-27T04:31:28.973Z,0.00
2022-12-27T04:34:15.176Z,0.10
2022-12-27T04:36:43.440Z,0.20
2022-12-27T04:39:14.250Z,0.00
2022-12-27T04:42:00.287Z,0.10
2022-12-27T04:44:57.981Z,0.10
2022-12-27T04:47:43.151Z,0.10
2022-12-27T04:50:32.503Z,0.20
2022-12-27T04:53:19.153Z,0.00
2022-12-27T04:55:48.789Z,0.00
2022-12-27T04:58:17.110Z,0.10
2022-12-27T05:01:07.825Z,0.10
2022-12-27T05:03:39.388Z,0.10
2022-12-27T05:06:09.420Z,0.10
2022-12-27T05:08:58.476Z,0.10
2022-12-27T05:11:46.273Z,0.10
2022-12-27T05:14:16.885Z,0.10
2022-12-27T05:16:45.791Z,0.00
2022-12-27T05:19:15.944Z,0.10
2022-12-27T05:22:06.701Z,0.10
2022-12-27T05:24:53.279Z,0.10
2022-12-27T05:27:22.880Z,0.10
2022-12-27T05:29:52.029Z,0.00
2022-12-27T05:32:20.444Z,0.00
2022-12-27T05:34:48.701Z,0.10
2022-12-27T05:37:17.445Z,0.10
2022-12-27T05:39:45.955Z,0.10
2022-12-27T05:42:14.332Z,0.00
2022-12-27T05:44:44.346Z,0.10
2022-12-27T05:47:12.907Z,0.10
2022-12-27T05:49:41.322Z,0.10
2022-12-27T05:52:09.864Z,0.10
2022-12-27T05:54:38.131Z,0.63
2022-12-27T05:57:06.835Z,0.10
2022-12-27T05:59:35.091Z,0.10
2022-12-27T06:02:04.813Z,0.10
2022-12-27T06:04:33.388Z,0.10
2022-12-27T06:07:02.532Z,0.10
2022-12-27T06:09:31.590Z,0.10
2022-12-27T06:11:59.867Z,0.10
2022-12-27T06:14:28.893Z,0.10
2022-12-27T06:16:57.625Z,0.00
2022-12-27T06:19:27.283Z,0.10
2022-12-27T06:21:55.559Z,0.10
2022-12-27T06:24:27.741Z,0.07
2022-12-27T06:26:56.082Z,0.10
2022-12-27T06:29:24.973Z,0.00
2022-12-27T06:31:53.804Z,0.10
2022-12-27T06:34:22.124Z,0.10
2022-12-27T06:36:51.729Z,0.37
2022-12-27T06:39:20.285Z,0.10
2022-12-27T06:41:50.451Z,0.10
2022-12-27T06:44:19.599Z,0.10
2022-12-27T06:46:48.423Z,0.10
2022-12-27T06:49:17.152Z,0.10
2022-12-27T06:51:45.509Z,0.10
2022-12-27T06:54:15.108Z,2.37
2022-12-27T06:56:43.361Z,0.07
2022-12-27T06:59:14.815Z,0.13
2022-12-27T07:01:43.598Z,0.10
2022-12-27T07:04:14.592Z,0.10
2022-12-27T07:06:43.040Z,0.10
2022-12-27T07:09:11.308Z,0.10
2022-12-27T07:11:41.145Z,0.10
2022-12-27T07:14:10.463Z,0.27
2022-12-27T07:16:38.928Z,0.10
2022-12-27T07:19:07.677Z,0.10
2022-12-27T07:21:36.439Z,0.00
2022-12-27T07:24:04.766Z,0.10
2022-12-27T07:26:33.315Z,0.10
2022-12-27T07:29:04.206Z,0.20
2022-12-27T07:31:34.494Z,0.10
2022-12-27T07:34:03.865Z,0.10
2022-12-27T07:36:37.731Z,0.10
2022-12-27T07:39:06.803Z,0.10
2022-12-27T07:41:35.593Z,0.10
2022-12-27T07:44:06.293Z,0.10
2022-12-27T07:46:35.614Z,0.20
2022-12-27T07:49:03.895Z,0.10
2022-12-27T07:51:32.308Z,0.10
2022-12-27T07:54:00.567Z,0.10
2022-12-27T07:56:29.501Z,0.23
2022-12-27T07:58:58.494Z,0.10
2022-12-27T08:01:29.561Z,0.10
2022-12-27T08:03:58.301Z,0.10
2022-12-27T08:06:29.496Z,0.00
2022-12-27T08:08:59.596Z,0.53
2022-12-27T08:11:30.107Z,0.57
2022-12-27T08:13:58.532Z,0.10
2022-12-27T08:16:28.585Z,0.10
2022-12-27T08:18:57.183Z,0.10
2022-12-27T08:21:25.710Z,0.10
2022-12-27T08:23:54.065Z,0.10
2022-12-27T08:26:22.575Z,0.10
2022-12-27T08:28:51.008Z,0.10
2022-12-27T08:31:19.827Z,0.10
2022-12-27T08:33:56.527Z,0.10
2022-12-27T08:39:15.397Z,0.27
2022-12-27T08:41:43.702Z,0.10
2022-12-27T08:44:12.312Z,0.10
2022-12-27T08:46:41.058Z,0.23
2022-12-27T08:49:10.784Z,0.43
2022-12-27T08:51:41.505Z,0.10
2022-12-27T08:54:10.079Z,0.10
2022-12-27T08:56:38.719Z,0.10
2022-12-27T08:59:07.067Z,0.10
2022-12-27T09:01:35.366Z,0.10
2022-12-27T09:04:04.211Z,0.10
2022-12-27T09:06:34.084Z,1.70
2022-12-27T09:09:02.483Z,0.00
2022-12-27T09:11:31.507Z,0.10
2022-12-27T09:14:00.730Z,0.10
2022-12-27T09:16:29.857Z,0.10
2022-12-27T09:18:59.286Z,0.20
2022-12-27T09:21:28.461Z,0.10
2022-12-27T09:23:58.221Z,0.10
2022-12-27T09:26:28.421Z,0.20
2022-12-27T09:28:56.783Z,0.10
2022-12-27T09:31:26.147Z,0.10
2022-12-27T09:33:54.884Z,0.10
2022-12-27T09:36:24.542Z,0.00
2022-12-27T09:38:53.558Z,0.10
2022-12-27T09:42:25.648Z,0.10
2022-12-27T09:44:15.210Z,0.10
2022-12-27T09:46:45.289Z,0.00
2022-12-27T09:49:14.516Z,0.70
2022-12-27T09:51:48.104Z,0.10
2022-12-27T09:54:17.696Z,0.10
2022-12-27T09:57:18.448Z,0.00
2022-12-27T09:59:38.934Z,0.10
2022-12-27T10:02:14.706Z,0.00
2022-12-27T10:05:18.647Z,0.13
2022-12-27T10:07:37.851Z,0.00
2022-12-27T10:10:10.000Z,0.20
2022-12-27T10:13:02.226Z,0.10
2022-12-27T10:15:33.601Z,0.10
2022-12-27T10:18:10.447Z,0.10
2022-12-27T10:20:47.847Z,0.10
2022-12-27T10:23:18.559Z,0.27
2022-12-27T10:25:47.845Z,0.00
2022-12-27T10:28:18.507Z,0.10
2022-12-27T10:30:46.960Z,0.10
2022-12-27T10:33:21.229Z,0.00
2022-12-27T10:35:50.332Z,0.10
2022-12-27T10:38:18.664Z,0.00
2022-12-27T10:40:52.543Z,0.10
2022-12-27T10:43:25.180Z,0.00
2022-12-27T10:45:53.558Z,0.00
2022-12-27T10:48:24.267Z,0.00
2022-12-27T10:50:55.531Z,0.00
2022-12-27T10:53:31.842Z,0.00
2022-12-27T10:56:10.857Z,0.10
2022-12-27T10:58:41.937Z,0.47
2022-12-27T11:01:19.367Z,0.00
2022-12-27T11:03:47.839Z,0.70
2022-12-27T11:06:22.116Z,0.00
2022-12-27T11:08:50.589Z,0.10
2022-12-27T11:11:20.819Z,0.10
2022-12-27T11:13:51.310Z,0.10
2022-12-27T11:16:21.859Z,0.00
2022-12-27T11:18:53.099Z,0.13
2022-12-27T11:21:27.748Z,0.10
2022-12-27T11:23:58.579Z,0.20
2022-12-27T11:26:28.140Z,0.00
2022-12-27T11:28:59.279Z,1.20
2022-12-27T11:31:33.313Z,0.20
2022-12-27T11:34:03.521Z,0.20
2022-12-27T11:36:33.523Z,0.10
2022-12-27T11:39:02.422Z,0.10
2022-12-27T11:41:34.276Z,0.00
2022-12-27T11:44:06.263Z,0.00
2022-12-27T11:46:39.114Z,0.10
2022-12-27T11:49:09.040Z,0.10
2022-12-27T11:51:51.217Z,0.10
2022-12-27T11:54:29.827Z,0.10
2022-12-27T11:57:02.919Z,0.10
2022-12-27T11:59:45.759Z,0.00
2022-12-27T12:02:29.198Z,0.00
2022-12-27T12:05:08.407Z,0.00
2022-12-27T12:07:44.879Z,0.10
2022-12-27T12:10:22.569Z,0.20
2022-12-27T12:13:05.073Z,0.10
2022-12-27T12:15:49.001Z,0.10
2022-12-27T12:18:27.606Z,0.10
2022-12-27T12:21:20.400Z,0.00
2022-12-27T12:23:55.782Z,0.10
2022-12-27T12:26:24.893Z,0.00
2022-12-27T12:29:06.358Z,0.10
2022-12-27T12:31:49.388Z,0.00
2022-12-27T12:34:28.883Z,0.00
2022-12-27T12:37:03.347Z,0.00
2022-12-27T12:39:46.523Z,0.10
2022-12-27T12:42:22.331Z,0.00
2022-12-27T12:45:07.780Z,0.10
2022-12-27T12:47:45.793Z,0.00
2022-12-27T12:50:23.450Z,0.47
2022-12-27T12:52:58.285Z,0.07
2022-12-27T12:55:38.460Z,0.00
2022-12-27T12:58:17.778Z,0.10
2022-12-27T13:00:58.446Z,0.10
2022-12-27T13:03:34.662Z,0.00
2022-12-27T13:06:09.897Z,0.00
2022-12-27T13:08:40.891Z,0.20
2022-12-27T13:11:24.160Z,0.10
2022-12-27T13:14:01.258Z,0.00
2022-12-27T13:16:36.430Z,0.20
2022-12-27T13:19:21.276Z,0.00
2022-12-27T13:21:57.603Z,0.00
2022-12-27T13:24:30.164Z,0.07
2022-12-27T13:27:03.405Z,0.00
2022-12-27T13:29:36.611Z,0.10
2022-12-27T13:32:09.872Z,0.00
2022-12-27T13:34:45.857Z,0.00
2022-12-27T13:37:21.027Z,0.00
2022-12-27T13:39:57.275Z,0.00
2022-12-27T13:42:42.143Z,0.10
2022-12-27T13:45:20.039Z,0.10
2022-12-27T13:47:52.429Z,0.00
2022-12-27T13:50:33.170Z,0.27
2022-12-27T13:53:15.093Z,0.20
2022-12-27T13:55:48.089Z,0.10
2022-12-27T13:58:24.223Z,0.20
2022-12-27T14:00:56.007Z,0.07
2022-12-27T14:03:42.710Z,0.00
2022-12-27T14:06:29.971Z,0.10
2022-12-27T14:09:16.794Z,0.40
2022-12-27T14:11:53.104Z,0.47
2022-12-27T14:14:22.271Z,0.10
2022-12-27T14:16:59.728Z,0.30
2022-12-27T14:19:46.643Z,0.07
2022-12-27T14:22:26.924Z,0.10
2022-12-27T14:25:10.832Z,0.00
2022-12-27T14:28:06.587Z,0.70
2022-12-27T14:30:54.077Z,0.00
2022-12-27T14:33:41.251Z,0.10
2022-12-27T14:36:39.574Z,0.00
2022-12-27T14:39:21.189Z,0.00
2022-12-27T14:42:07.117Z,0.00
2022-12-27T14:44:53.233Z,0.33
2022-12-27T14:47:37.751Z,0.00
2022-12-27T14:50:21.209Z,0.10
2022-12-27T14:53:07.704Z,0.20
2022-12-27T14:55:48.400Z,0.60
2022-12-27T14:58:31.574Z,0.20
2022-12-27T15:01:06.610Z,0.10
2022-12-27T15:03:54.289Z,0.10
2022-12-27T15:06:28.684Z,0.10
2022-12-27T15:09:06.784Z,0.10
2022-12-27T15:11:41.666Z,0.20
2022-12-27T15:14:17.495Z,0.53
2022-12-27T15:16:51.570Z,0.10
2022-12-27T15:19:27.501Z,0.10
2022-12-27T15:22:01.227Z,0.20
2022-12-27T15:24:36.348Z,0.10
2022-12-27T15:27:10.606Z,0.10
2022-12-27T15:29:47.338Z,0.30
2022-12-27T15:32:23.776Z,0.20
2022-12-27T15:35:00.558Z,0.43
2022-12-27T15:37:47.743Z,0.10
2022-12-27T15:40:43.403Z,0.10
2022-12-27T15:43:19.359Z,0.23
2022-12-27T15:45:55.695Z,0.73
2022-12-27T15:48:32.994Z,0.10
2022-12-27T15:51:05.814Z,0.10
2022-12-27T15:53:39.841Z,0.13
2022-12-27T15:56:19.400Z,0.03
2022-12-27T15:59:09.319Z,0.10
2022-12-27T16:01:39.202Z,0.10
2022-12-27T16:04:22.488Z,0.30
2022-12-27T16:07:26.595Z,0.40
2022-12-27T16:09:55.084Z,0.40
2022-12-27T16:12:37.420Z,0.40
2022-12-27T16:15:25.272Z,0.10
2022-12-27T16:17:56.665Z,0.93
2022-12-27T16:20:25.363Z,0.50
2022-12-27T16:22:54.457Z,0.10
2022-12-27T16:25:31.008Z,0.10
2022-12-27T16:28:02.886Z,0.10
2022-12-27T16:30:45.549Z,0.10
2022-12-27T16:33:24.587Z,0.87
2022-12-27T16:36:15.565Z,0.10
2022-12-27T16:38:48.443Z,0.10
2022-12-27T16:41:21.755Z,0.10
2022-12-27T16:43:53.779Z,0.10
2022-12-27T16:46:35.849Z,0.20
2022-12-27T16:49:16.052Z,0.10
2022-12-27T16:51:51.589Z,1.03
2022-12-27T16:54:27.740Z,0.60
2022-12-27T16:57:22.893Z,0.10
2022-12-27T16:59:57.819Z,0.10
2022-12-27T17:02:34.334Z,0.10
2022-12-27T17:05:04.733Z,0.10
2022-12-27T17:07:44.047Z,0.10
2022-12-27T17:10:32.021Z,1.13
2022-12-27T17:13:04.304Z,1.10
2022-12-27T17:15:33.575Z,4.57
2022-12-27T17:18:08.305Z,1.43
2022-12-27T17:20:38.432Z,0.30
2022-12-27T17:23:06.769Z,0.10
2022-12-27T17:25:39.309Z,0.77
2022-12-27T17:28:09.606Z,3.87
2022-12-27T17:30:40.735Z,1.47
2022-12-27T17:33:18.343Z,8.73
2022-12-27T17:35:58.379Z,9.27
2022-12-27T17:38:31.759Z,3.80
2022-12-27T17:41:07.938Z,1.83
2022-12-27T17:44:01.250Z,0.53
2022-12-27T17:46:36.548Z,0.50
2022-12-27T17:49:05.830Z,0.90
2022-12-27T17:51:36.687Z,0.30
2022-12-27T17:54:39.315Z,0.10
2022-12-27T17:57:25.775Z,0.73
2022-12-27T17:59:55.856Z,0.10
2022-12-27T18:02:26.673Z,0.20
2022-12-27T18:04:56.514Z,0.20
2022-12-27T18:07:27.693Z,0.53
2022-12-27T18:09:58.345Z,0.63
2022-12-27T18:12:28.568Z,0.23
2022-12-27T18:14:59.432Z,0.43
2022-12-27T18:17:29.572Z,0.63
2022-12-27T18:19:59.639Z,0.10
2022-12-27T18:22:29.445Z,0.23
2022-12-27T18:24:57.716Z,0.10
2022-12-27T18:27:27.088Z,0.67
2022-12-27T18:29:55.442Z,0.10
2022-12-27T18:32:24.524Z,0.27
2022-12-27T18:34:55.279Z,0.20
2022-12-27T18:37:24.532Z,0.10
2022-12-27T18:39:55.587Z,0.10
2022-12-27T18:42:27.317Z,0.20
2022-12-27T18:44:56.991Z,0.10
2022-12-27T18:47:27.003Z,1.03
2022-12-27T18:49:56.882Z,0.17
2022-12-27T18:52:27.309Z,0.10
2022-12-27T18:54:56.927Z,0.23
2022-12-27T18:57:35.455Z,0.10
2022-12-27T19:00:06.165Z,0.10
2022-12-27T19:02:36.197Z,0.20
2022-12-27T19:05:23.779Z,0.10
2022-12-27T19:07:54.077Z,0.20
2022-12-27T19:10:25.444Z,0.17
2022-12-27T19:12:54.171Z,1.00
2022-12-27T19:15:24.883Z,0.67
2022-12-27T19:17:55.032Z,0.20
2022-12-27T19:20:24.619Z,0.57
2022-12-27T19:22:55.330Z,0.87
2022-12-27T19:25:26.463Z,0.93
2022-12-27T19:28:02.194Z,1.27
2022-12-27T19:30:35.964Z,1.33
2022-12-27T19:33:06.379Z,0.20
2022-12-27T19:35:34.935Z,0.20
2022-12-27T19:38:03.613Z,0.33
2022-12-27T19:40:33.416Z,0.10
2022-12-27T19:43:01.744Z,1.13
2022-12-27T19:45:30.217Z,0.43
2022-12-27T19:47:58.945Z,0.10
2022-12-27T19:50:28.734Z,0.60
2022-12-27T19:52:57.024Z,0.10
2022-12-27T19:55:27.458Z,0.10
2022-12-27T19:57:58.494Z,0.40
2022-12-27T20:00:27.418Z,0.10
2022-12-27T20:02:56.782Z,0.53
2022-12-27T20:06:13.920Z,0.20
2022-12-27T20:08:21.501Z,0.10
2022-12-27T20:10:49.822Z,0.23
2022-12-27T20:13:21.002Z,0.47
2022-12-27T20:15:50.014Z,0.93
2022-12-27T20:18:18.752Z,0.13
2022-12-27T20:20:48.649Z,0.77
2022-12-27T20:23:17.327Z,0.87
2022-12-27T20:25:47.389Z,0.63
2022-12-27T20:28:16.942Z,0.30
2022-12-27T20:30:47.347Z,2.37
2022-12-27T20:33:16.734Z,0.97
2022-12-27T20:35:45.492Z,0.30
2022-12-27T20:38:13.816Z,0.53
2022-12-27T20:40:42.635Z,0.43
2022-12-27T20:43:11.417Z,0.10
2022-12-27T20:45:40.326Z,0.23
2022-12-27T20:48:11.152Z,0.10
2022-12-27T20:50:39.967Z,0.10
2022-12-27T20:53:08.500Z,0.77
2022-12-27T20:55:36.910Z,0.40
2022-12-27T20:58:05.275Z,0.17
2022-12-27T21:00:33.589Z,0.10
2022-12-27T21:03:02.256Z,0.30
2022-12-27T21:05:32.121Z,0.30
2022-12-27T21:08:00.401Z,0.40
2022-12-27T21:10:28.738Z,0.47
2022-12-27T21:12:57.030Z,0.10
2022-12-27T21:15:28.899Z,0.30
2022-12-27T21:17:59.343Z,0.10
2022-12-27T21:20:27.618Z,0.30
2022-12-27T21:22:57.266Z,0.10
2022-12-27T21:25:25.980Z,0.13
2022-12-27T21:27:55.136Z,0.20
2022-12-27T21:30:23.497Z,0.20
2022-12-27T21:32:52.216Z,0.93
2022-12-27T21:35:21.035Z,0.50
2022-12-27T21:37:49.320Z,0.20
2022-12-27T21:40:19.231Z,0.10
2022-12-27T21:42:48.034Z,0.10
2022-12-27T21:45:16.427Z,0.67
2022-12-27T21:47:44.928Z,0.20
2022-12-27T21:50:13.269Z,0.10
2022-12-27T21:52:41.633Z,0.57
2022-12-27T21:55:10.730Z,0.10
2022-12-27T21:57:40.448Z,0.20
2022-12-27T22:00:09.564Z,0.57
2022-12-27T22:02:38.120Z,0.10
2022-12-27T22:05:07.012Z,0.20
2022-12-27T22:07:35.325Z,0.20
2022-12-27T22:10:03.613Z,0.13
2022-12-27T22:12:32.018Z,0.10
2022-12-27T22:15:01.769Z,0.17
2022-12-27T22:17:30.195Z,0.10
2022-12-27T22:19:58.828Z,0.20
2022-12-27T22:22:27.504Z,0.97
2022-12-27T22:24:56.267Z,0.20
2022-12-27T22:27:24.659Z,0.27
2022-12-27T22:29:53.331Z,0.27
2022-12-27T22:32:23.039Z,0.10
2022-12-27T22:34:51.444Z,0.23
2022-12-27T22:37:19.770Z,0.10
2022-12-27T22:39:48.178Z,0.20
2022-12-27T22:42:16.663Z,0.20
2022-12-27T22:44:45.105Z,0.20
2022-12-27T22:47:26.261Z,1.43
2022-12-27T22:49:56.328Z,0.20
2022-12-27T22:52:24.652Z,1.80
2022-12-27T22:55:05.554Z,1.33
2022-12-27T22:57:35.440Z,0.33
2022-12-27T23:00:04.511Z,0.80
2022-12-27T23:02:33.256Z,0.40
2022-12-27T23:05:03.380Z,2.93
2022-12-27T23:08:05.547Z,0.83
2022-12-27T23:10:20.718Z,1.50
2022-12-27T23:12:49.347Z,1.50
2022-12-27T23:15:17.986Z,1.13
2022-12-27T23:17:47.488Z,0.10
2022-12-27T23:20:18.498Z,1.40
2022-12-27T23:22:47.322Z,0.90
2022-12-27T23:25:15.840Z,0.90
2022-12-27T23:27:44.262Z,1.80
2022-12-27T23:30:13.400Z,0.30
2022-12-27T23:32:41.815Z,0.60
2022-12-27T23:35:10.687Z,1.40
2022-12-27T23:37:40.341Z,0.20
2022-12-27T23:40:09.541Z,0.30
2022-12-27T23:42:37.858Z,0.10
2022-12-27T23:45:06.447Z,0.43
2022-12-27T23:47:35.288Z,0.33
2022-12-27T23:50:04.057Z,0.20
2022-12-27T23:52:32.631Z,0.10
2022-12-27T23:55:02.332Z,0.13
2022-12-27T23:57:30.862Z,0.10
2022-12-27T23:59:59.214Z,0.63
